createdAt,value
2023-02-21T00:01:35.079Z,95590.45
2023-02-21T00:04:19.801Z,95594.92
2023-02-21T00:07:04.690Z,95589.67
2023-02-21T00:09:49.251Z,95592.85
2023-02-21T00:12:34.066Z,95593.11
2023-02-21T00:15:18.917Z,95591.91
2023-02-21T00:18:03.668Z,95587.98
2023-02-21T00:20:48.428Z,95590.96
2023-02-21T00:23:33.347Z,95592.42
2023-02-21T00:26:17.924Z,95588.17
2023-02-21T00:29:02.785Z,95587.90
2023-02-21T00:31:47.748Z,95583.40
2023-02-21T00:34:32.290Z,95577.73
2023-02-21T00:37:17.232Z,95580.92
2023-02-21T00:40:02.038Z,95576.11
2023-02-21T00:42:46.907Z,95585.60
2023-02-21T00:45:31.475Z,95576.58
2023-02-21T00:48:16.559Z,95583.11
2023-02-21T00:51:01.261Z,95565.34
2023-02-21T00:53:45.739Z,95568.45
2023-02-21T00:56:30.568Z,95560.81
2023-02-21T00:59:15.027Z,95555.31
2023-02-21T01:02:00.139Z,95551.27
2023-02-21T01:04:44.853Z,95545.36
2023-02-21T01:07:31.788Z,95536.45
2023-02-21T01:10:16.475Z,95532.95
2023-02-21T01:13:01.084Z,95532.41
2023-02-21T01:15:45.436Z,95527.94
2023-02-21T01:18:31.148Z,95525.64
2023-02-21T01:21:16.063Z,95520.94
2023-02-21T01:24:00.852Z,95522.60
2023-02-21T01:26:45.932Z,95516.08
2023-02-21T01:29:30.420Z,95517.63
2023-02-21T01:32:14.755Z,95513.75
2023-02-21T01:34:59.517Z,95512.45
2023-02-21T01:37:43.813Z,95506.75
2023-02-21T01:40:33.827Z,95506.86
2023-02-21T01:43:20.167Z,95509.02
2023-02-21T01:46:07.560Z,95510.96
2023-02-21T01:48:53.932Z,95504.68
2023-02-21T01:51:44.982Z,95502.36
2023-02-21T01:54:29.894Z,95489.70
2023-02-21T01:57:17.269Z,95490.48
2023-02-21T02:00:02.591Z,95487.82
2023-02-21T02:03:15.833Z,95491.03
2023-02-21T02:06:04.177Z,95487.88
2023-02-21T02:08:51.458Z,95474.84
2023-02-21T02:12:04.993Z,95474.54
2023-02-21T02:14:39.762Z,95468.52
2023-02-21T02:17:24.438Z,95465.52
2023-02-21T02:20:23.812Z,95460.47
2023-02-21T02:23:11.322Z,95463.95
2023-02-21T02:26:10.657Z,95466.98
2023-02-21T02:28:45.682Z,95461.36
2023-02-21T02:31:30.537Z,95462.61
2023-02-21T02:34:17.325Z,95458.52
2023-02-21T02:36:52.942Z,95458.72
2023-02-21T02:39:31.420Z,95459.80
2023-02-21T02:42:14.061Z,95455.98
2023-02-21T02:44:44.541Z,95458.26
2023-02-21T02:47:22.903Z,95456.24
2023-02-21T02:49:51.708Z,95450.66
2023-02-21T02:52:17.896Z,95453.92
2023-02-21T02:54:43.991Z,95454.35
2023-02-21T02:57:12.515Z,95457.90
2023-02-21T02:59:43.505Z,95447.73
2023-02-21T03:02:36.415Z,95453.02
2023-02-21T03:05:05.359Z,95442.94
2023-02-21T03:07:43.416Z,95443.39
2023-02-21T03:10:18.238Z,95446.61
2023-02-21T03:12:54.962Z,95444.87
2023-02-21T03:15:26.439Z,95449.01
2023-02-21T03:18:18.352Z,95447.05
2023-02-21T03:20:48.472Z,95447.91
2023-02-21T03:23:17.717Z,95441.44
2023-02-21T03:25:46.325Z,95440.56
2023-02-21T03:28:13.360Z,95438.86
2023-02-21T03:30:44.209Z,95434.13
2023-02-21T03:33:10.937Z,95430.59
2023-02-21T03:35:37.629Z,95432.09
2023-02-21T03:38:04.420Z,95434.81
2023-02-21T03:40:33.141Z,95434.02
2023-02-21T03:43:01.934Z,95430.33
2023-02-21T03:45:31.670Z,95437.20
2023-02-21T03:48:30.995Z,95433.38
2023-02-21T03:50:59.988Z,95437.11
2023-02-21T03:53:28.951Z,95448.80
2023-02-21T03:55:55.320Z,95451.38
2023-02-21T03:58:25.957Z,95450.09
2023-02-21T04:00:53.292Z,95452.35
2023-02-21T04:03:23.224Z,95452.04
2023-02-21T04:05:55.197Z,95454.83
2023-02-21T04:08:21.393Z,95450.39
2023-02-21T04:10:52.479Z,95447.77
2023-02-21T04:13:23.082Z,95452.66
2023-02-21T04:15:49.737Z,95451.79
2023-02-21T04:18:16.708Z,95452.14
2023-02-21T04:20:46.196Z,95461.59
2023-02-21T04:23:19.397Z,95469.75
2023-02-21T04:25:45.738Z,95471.00
2023-02-21T04:28:15.921Z,95468.86
2023-02-21T04:30:42.060Z,95476.79
2023-02-21T04:33:08.363Z,95484.85
2023-02-21T04:35:34.672Z,95485.30
2023-02-21T04:38:06.354Z,95481.92
2023-02-21T04:40:32.411Z,95484.80
2023-02-21T04:42:58.497Z,95484.60
2023-02-21T04:45:25.096Z,95484.44
2023-02-21T04:47:51.238Z,95481.98
2023-02-21T04:50:17.588Z,95475.05
2023-02-21T04:52:43.825Z,95473.32
2023-02-21T04:55:09.941Z,95477.04
2023-02-21T04:57:36.232Z,95470.64
2023-02-21T05:00:06.680Z,95462.94
2023-02-21T05:02:33.050Z,95457.35
2023-02-21T05:04:59.426Z,95457.69
2023-02-21T05:07:25.539Z,95452.95
2023-02-21T05:09:51.757Z,95444.99
2023-02-21T05:12:17.838Z,95449.20
2023-02-21T05:14:43.925Z,95446.89
2023-02-21T05:17:10.232Z,95449.36
2023-02-21T05:19:36.414Z,95449.32
2023-02-21T05:22:02.922Z,95440.73
2023-02-21T05:24:30.372Z,95433.83
2023-02-21T05:26:57.257Z,95439.84
2023-02-21T05:29:24.005Z,95432.92
2023-02-21T05:31:50.221Z,95433.87
2023-02-21T05:34:18.999Z,95435.56
2023-02-21T05:36:45.655Z,95436.00
2023-02-21T05:39:11.747Z,95439.80
2023-02-21T05:41:38.059Z,95447.77
2023-02-21T05:44:04.734Z,95452.83
2023-02-21T05:46:34.057Z,95451.30
2023-02-21T05:49:03.603Z,95450.55
2023-02-21T05:51:38.457Z,95454.29
2023-02-21T05:54:06.927Z,95454.18
2023-02-21T05:56:40.644Z,95453.67
2023-02-21T05:59:06.910Z,95466.76
2023-02-21T06:01:33.005Z,95465.15
2023-02-21T06:03:59.243Z,95466.35
2023-02-21T06:06:25.545Z,95470.73
2023-02-21T06:08:51.650Z,95473.88
2023-02-21T06:11:27.526Z,95474.94
2023-02-21T06:13:56.133Z,95469.27
2023-02-21T06:16:23.167Z,95468.42
2023-02-21T06:18:53.431Z,95466.93
2023-02-21T06:21:19.631Z,95464.89
2023-02-21T06:23:46.173Z,95458.01
2023-02-21T06:26:13.545Z,95461.67
2023-02-21T06:28:39.690Z,95461.30
2023-02-21T06:31:06.076Z,95464.61
2023-02-21T06:33:32.642Z,95471.73
2023-02-21T06:36:02.351Z,95473.16
2023-02-21T06:38:28.478Z,95472.70
2023-02-21T06:40:54.577Z,95471.30
2023-02-21T06:43:20.742Z,95469.67
2023-02-21T06:45:46.997Z,95471.04
2023-02-21T06:48:16.555Z,95470.23
2023-02-21T06:50:42.912Z,95476.95
2023-02-21T06:53:09.091Z,95470.27
2023-02-21T06:55:35.278Z,95468.04
2023-02-21T06:58:01.432Z,95470.35
2023-02-21T07:00:27.526Z,95464.89
2023-02-21T07:02:53.657Z,95464.33
2023-02-21T07:05:19.955Z,95460.36
2023-02-21T07:07:46.184Z,95465.61
2023-02-21T07:10:12.681Z,95462.71
2023-02-21T07:12:39.534Z,95462.45
2023-02-21T07:15:06.762Z,95465.71
2023-02-21T07:17:32.962Z,95467.02
2023-02-21T07:19:59.116Z,95470.75
2023-02-21T07:22:28.244Z,95470.00
2023-02-21T07:24:55.162Z,95464.23
2023-02-21T07:27:21.835Z,95461.56
2023-02-21T07:29:48.895Z,95458.98
2023-02-21T07:32:18.200Z,95455.16
2023-02-21T07:34:45.467Z,95446.89
2023-02-21T07:37:12.791Z,95446.13
2023-02-21T07:39:39.199Z,95443.73
2023-02-21T07:42:07.288Z,95444.94
2023-02-21T07:44:33.955Z,95440.80
2023-02-21T07:47:00.108Z,95436.15
2023-02-21T07:49:29.993Z,95430.58
2023-02-21T07:51:57.228Z,95431.80
2023-02-21T07:54:23.349Z,95432.92
2023-02-21T07:56:49.545Z,95429.83
2023-02-21T07:59:15.780Z,95430.02
2023-02-21T08:01:42.042Z,95426.14
2023-02-21T08:04:08.300Z,95425.69
2023-02-21T08:06:35.112Z,95423.50
2023-02-21T08:09:01.230Z,95425.60
2023-02-21T08:11:27.463Z,95420.02
2023-02-21T08:13:54.015Z,95418.73
2023-02-21T08:16:20.171Z,95415.36
2023-02-21T08:18:50.248Z,95419.02
2023-02-21T08:21:19.529Z,95422.52
2023-02-21T08:23:45.604Z,95421.92
2023-02-21T08:26:11.708Z,95424.02
2023-02-21T08:28:37.963Z,95420.20
2023-02-21T08:31:04.554Z,95420.59
2023-02-21T08:33:31.656Z,95418.95
2023-02-21T08:35:57.994Z,95416.04
2023-02-21T08:38:24.095Z,95412.69
2023-02-21T08:40:50.926Z,95414.52
2023-02-21T08:43:17.148Z,95413.36
2023-02-21T08:45:43.223Z,95409.20
2023-02-21T08:48:09.419Z,95415.08
2023-02-21T08:50:35.552Z,95406.70
2023-02-21T08:53:01.717Z,95402.89
2023-02-21T08:55:27.851Z,95404.71
2023-02-21T08:57:54.172Z,95408.96
2023-02-21T09:00:23.606Z,95397.42
2023-02-21T09:02:52.387Z,95399.66
2023-02-21T09:05:24.028Z,95402.36
2023-02-21T09:07:54.412Z,95400.88
2023-02-21T09:10:21.319Z,95398.66
2023-02-21T09:12:47.490Z,95403.98
2023-02-21T09:15:15.307Z,95398.30
2023-02-21T09:17:41.486Z,95393.83
2023-02-21T09:20:10.106Z,95391.69
2023-02-21T09:22:36.358Z,95389.14
2023-02-21T09:25:03.352Z,95389.02
2023-02-21T09:27:38.190Z,95378.16
2023-02-21T09:30:07.668Z,95368.87
2023-02-21T09:32:34.573Z,95369.27
2023-02-21T09:35:00.913Z,95372.98
2023-02-21T09:37:27.022Z,95375.30
2023-02-21T09:39:53.410Z,95376.30
2023-02-21T09:42:24.045Z,95368.24
2023-02-21T09:44:51.016Z,95362.45
2023-02-21T09:47:31.233Z,95361.61
2023-02-21T09:50:06.521Z,95358.63
2023-02-21T09:52:38.562Z,95348.56
2023-02-21T09:55:12.609Z,95346.51
2023-02-21T09:57:38.821Z,95342.63
2023-02-21T10:00:46.510Z,95341.02
2023-02-21T10:03:18.723Z,95334.80
2023-02-21T10:05:57.425Z,95329.77
2023-02-21T10:08:36.581Z,95328.25
2023-02-21T10:11:41.013Z,95321.75
2023-02-21T10:14:13.537Z,95316.23
2023-02-21T10:16:50.864Z,95311.52
2023-02-21T10:22:45.888Z,95297.40
2023-02-21T10:25:24.275Z,95289.54
2023-02-21T10:27:52.955Z,95288.79
2023-02-21T10:30:40.272Z,95284.18
2023-02-21T10:33:07.624Z,95280.09
2023-02-21T10:35:37.510Z,95278.56
2023-02-21T10:38:11.713Z,95273.08
2023-02-21T10:40:37.876Z,95266.40
2023-02-21T10:43:14.425Z,95262.98
2023-02-21T10:45:47.203Z,95261.69
2023-02-21T10:48:14.868Z,95255.00
2023-02-21T10:51:05.393Z,95248.35
2023-02-21T10:53:37.477Z,95245.79
2023-02-21T10:56:16.073Z,95239.81
2023-02-21T10:58:56.235Z,95233.70
2023-02-21T11:01:25.481Z,95232.05
2023-02-21T11:03:59.542Z,95225.41
2023-02-21T11:06:38.060Z,95228.34
2023-02-21T11:09:31.199Z,95220.61
2023-02-21T11:12:15.423Z,95212.83
2023-02-21T11:14:43.338Z,95211.55
2023-02-21T11:17:16.562Z,95202.08
2023-02-21T11:19:46.996Z,95200.45
2023-02-21T11:22:14.831Z,95195.47
2023-02-21T11:25:02.417Z,95189.10
2023-02-21T11:27:31.293Z,95189.27
2023-02-21T11:29:58.363Z,95186.71
2023-02-21T11:32:26.976Z,95184.39
2023-02-21T11:35:20.443Z,95179.09
2023-02-21T11:37:56.067Z,95178.36
2023-02-21T11:40:28.908Z,95176.12
2023-02-21T11:43:30.352Z,95172.26
2023-02-21T11:46:40.131Z,95168.27
2023-02-21T11:49:36.769Z,95156.05
2023-02-21T11:52:09.409Z,95151.13
2023-02-21T11:54:35.567Z,95151.64
2023-02-21T11:57:08.628Z,95149.88
2023-02-21T11:59:52.307Z,95145.81
2023-02-21T12:02:55.769Z,95138.81
2023-02-21T12:06:00.211Z,95131.33
2023-02-21T12:08:30.668Z,95123.23
2023-02-21T12:11:05.855Z,95119.49
2023-02-21T12:13:49.185Z,95121.10
2023-02-21T12:16:19.757Z,95115.49
2023-02-21T12:18:51.835Z,95108.83
2023-02-21T12:21:36.358Z,95104.66
2023-02-21T12:24:34.984Z,95099.88
2023-02-21T12:27:41.524Z,95094.86
2023-02-21T12:30:26.330Z,95090.78
2023-02-21T12:33:07.319Z,95088.66
2023-02-21T12:35:37.114Z,95083.90
2023-02-21T12:38:06.615Z,95083.56
2023-02-21T12:40:44.763Z,95079.73
2023-02-21T12:43:38.603Z,95077.20
2023-02-21T12:46:19.182Z,95075.41
2023-02-21T12:49:16.713Z,95075.57
2023-02-21T12:51:52.548Z,95074.78
2023-02-21T12:54:25.982Z,95069.13
2023-02-21T12:57:03.349Z,95065.80
2023-02-21T12:59:36.543Z,95064.55
2023-02-21T13:02:15.320Z,95065.98
2023-02-21T13:05:02.272Z,95064.98
2023-02-21T13:07:44.774Z,95062.34
2023-02-21T13:10:19.315Z,95065.52
2023-02-21T13:13:04.154Z,95059.39
2023-02-21T13:15:30.744Z,95056.12
2023-02-21T13:18:08.061Z,95052.48
2023-02-21T13:20:39.595Z,95049.61
2023-02-21T13:24:01.098Z,95047.13
2023-02-21T13:26:53.005Z,95045.58
2023-02-21T13:29:30.360Z,95043.30
2023-02-21T13:32:07.143Z,95040.82
2023-02-21T13:34:45.236Z,95038.81
2023-02-21T13:37:20.669Z,95036.68
2023-02-21T13:40:00.744Z,95032.97
2023-02-21T13:42:29.467Z,95033.36
2023-02-21T13:45:22.916Z,95031.77
2023-02-21T13:47:59.323Z,95029.05
2023-02-21T13:50:38.425Z,95019.43
2023-02-21T13:53:12.573Z,95015.52
2023-02-21T13:55:39.957Z,95015.33
2023-02-21T13:58:06.765Z,95015.10
2023-02-21T14:00:32.888Z,95018.08
2023-02-21T14:03:05.718Z,95011.46
2023-02-21T14:05:43.948Z,95009.14
2023-02-21T14:08:29.170Z,95010.06
2023-02-21T14:11:00.266Z,95009.16
2023-02-21T14:13:40.185Z,95009.10
2023-02-21T14:16:18.371Z,95012.36
2023-02-21T14:19:07.032Z,95015.13
2023-02-21T14:21:38.927Z,95013.78
2023-02-21T14:24:20.302Z,95016.20
2023-02-21T14:27:00.710Z,95013.69
2023-02-21T14:29:31.177Z,95013.86
2023-02-21T14:32:03.441Z,95010.64
2023-02-21T14:34:37.416Z,95008.26
2023-02-21T14:37:19.384Z,95007.73
2023-02-21T14:39:52.569Z,95005.77
2023-02-21T14:42:33.811Z,95003.02
2023-02-21T14:45:11.719Z,95001.09
2023-02-21T14:48:15.348Z,95002.15
2023-02-21T14:51:06.278Z,94999.30
2023-02-21T14:53:53.096Z,94995.05
2023-02-21T14:56:58.178Z,94995.26
2023-02-21T14:59:40.030Z,94995.84
2023-02-21T15:02:25.101Z,94993.55
2023-02-21T15:04:57.496Z,94990.41
2023-02-21T15:07:41.550Z,94988.67
2023-02-21T15:10:22.802Z,94986.36
2023-02-21T15:12:55.921Z,94986.17
2023-02-21T15:15:31.231Z,94987.38
2023-02-21T15:18:02.510Z,94988.45
2023-02-21T15:20:33.412Z,94988.58
2023-02-21T15:23:28.870Z,94992.95
2023-02-21T15:25:57.586Z,94995.30
2023-02-21T15:28:32.206Z,94996.64
2023-02-21T15:31:09.905Z,95004.04
2023-02-21T15:33:38.649Z,95003.77
2023-02-21T15:36:08.621Z,95007.20
2023-02-21T15:38:49.605Z,95007.95
2023-02-21T15:41:33.856Z,95008.88
2023-02-21T15:44:05.220Z,95011.45
2023-02-21T15:46:42.283Z,95012.15
2023-02-21T15:49:18.469Z,95015.66
2023-02-21T15:51:44.746Z,95021.12
2023-02-21T15:54:37.756Z,95021.23
2023-02-21T15:57:04.101Z,95020.64
2023-02-21T15:59:31.427Z,95019.16
2023-02-21T16:02:14.034Z,95020.34
2023-02-21T16:04:49.263Z,95022.32
2023-02-21T16:07:24.155Z,95020.80
2023-02-21T16:09:58.815Z,95027.35
2023-02-21T16:12:32.739Z,95030.96
2023-02-21T16:15:13.788Z,95035.21
2023-02-21T16:17:41.614Z,95040.33
2023-02-21T16:20:21.195Z,95042.52
2023-02-21T16:23:08.007Z,95045.66
2023-02-21T16:25:34.764Z,95043.77
2023-02-21T16:28:01.793Z,95048.69
2023-02-21T16:30:31.706Z,95050.38
2023-02-21T16:33:03.786Z,95049.89
2023-02-21T16:35:30.859Z,95055.02
2023-02-21T16:37:58.456Z,95056.44
2023-02-21T16:40:28.292Z,95054.56
2023-02-21T16:42:55.941Z,95056.13
2023-02-21T16:45:22.903Z,95052.73
2023-02-21T16:47:54.656Z,95056.09
2023-02-21T16:50:29.248Z,95060.76
2023-02-21T16:52:55.625Z,95064.23
2023-02-21T16:55:21.819Z,95064.63
2023-02-21T16:57:49.616Z,95067.92
2023-02-21T17:00:21.531Z,95067.64
2023-02-21T17:02:48.919Z,95065.16
2023-02-21T17:05:16.057Z,95065.41
2023-02-21T17:07:42.487Z,95066.70
2023-02-21T17:10:10.404Z,95066.48
2023-02-21T17:12:36.540Z,95065.99
2023-02-21T17:15:03.647Z,95067.78
2023-02-21T17:17:29.780Z,95072.42
2023-02-21T17:19:56.205Z,95068.59
2023-02-21T17:22:23.432Z,95074.80
2023-02-21T17:24:49.866Z,95075.34
2023-02-21T17:27:16.001Z,95074.61
2023-02-21T17:29:42.076Z,95070.02
2023-02-21T17:32:08.376Z,95067.85
2023-02-21T17:34:36.279Z,95069.70
2023-02-21T17:37:03.400Z,95069.52
2023-02-21T17:39:29.717Z,95071.30
2023-02-21T17:41:56.455Z,95073.59
2023-02-21T17:44:23.849Z,95073.21
2023-02-21T17:46:53.357Z,95075.19
2023-02-21T17:49:22.277Z,95075.39
2023-02-21T17:51:49.023Z,95073.38
2023-02-21T17:54:21.647Z,95076.63
2023-02-21T17:56:48.310Z,95075.34
2023-02-21T17:59:17.275Z,95076.70
2023-02-21T18:02:04.370Z,95077.32
2023-02-21T18:04:30.870Z,95076.82
2023-02-21T18:06:57.741Z,95075.05
2023-02-21T18:09:24.154Z,95074.55
2023-02-21T18:11:52.165Z,95074.01
2023-02-21T18:14:19.730Z,95077.19
2023-02-21T18:16:46.026Z,95077.10
2023-02-21T18:19:12.576Z,95080.65
2023-02-21T18:21:40.711Z,95084.76
2023-02-21T18:24:08.888Z,95088.30
2023-02-21T18:26:35.570Z,95089.39
2023-02-21T18:29:02.063Z,95085.98
2023-02-21T18:31:28.362Z,95089.82
2023-02-21T18:33:54.552Z,95090.86
2023-02-21T18:36:20.861Z,95091.36
2023-02-21T18:38:48.986Z,95087.82
2023-02-21T18:41:19.819Z,95091.33
2023-02-21T18:43:46.189Z,95088.80
2023-02-21T18:46:14.763Z,95091.04
2023-02-21T18:48:43.290Z,95094.48
2023-02-21T18:51:11.379Z,95101.15
2023-02-21T18:53:38.515Z,95102.52
2023-02-21T18:56:11.394Z,95109.73
2023-02-21T18:58:38.503Z,95107.48
2023-02-21T19:01:06.380Z,95113.73
2023-02-21T19:03:33.052Z,95113.48
2023-02-21T19:06:00.055Z,95111.07
2023-02-21T19:08:26.550Z,95106.94
2023-02-21T19:10:53.288Z,95107.18
2023-02-21T19:13:19.880Z,95103.41
2023-02-21T19:15:46.177Z,95103.58
2023-02-21T19:18:12.715Z,95110.33
2023-02-21T19:20:43.269Z,95114.09
2023-02-21T19:23:09.811Z,95115.98
2023-02-21T19:25:36.124Z,95119.12
2023-02-21T19:28:02.720Z,95117.45
2023-02-21T19:30:33.890Z,95121.51
2023-02-21T19:33:01.297Z,95126.02
2023-02-21T19:35:29.101Z,95130.73
2023-02-21T19:37:58.738Z,95128.51
2023-02-21T19:40:25.255Z,95135.24
2023-02-21T19:42:51.602Z,95136.29
2023-02-21T19:45:18.820Z,95137.54
2023-02-21T19:47:45.810Z,95135.79
2023-02-21T19:50:12.871Z,95137.45
2023-02-21T19:52:39.784Z,95140.65
2023-02-21T19:55:10.321Z,95146.54
2023-02-21T19:57:36.902Z,95146.67
2023-02-21T20:00:06.257Z,95149.48
2023-02-21T20:02:32.548Z,95149.46
2023-02-21T20:04:59.007Z,95154.75
2023-02-21T20:07:25.600Z,95156.57
2023-02-21T20:09:52.101Z,95157.43
2023-02-21T20:12:22.192Z,95159.50
2023-02-21T20:14:49.945Z,95160.48
2023-02-21T20:17:17.482Z,95162.28
2023-02-21T20:19:47.230Z,95162.52
2023-02-21T20:22:13.474Z,95161.06
2023-02-21T20:24:45.501Z,95160.95
2023-02-21T20:27:13.656Z,95160.59
2023-02-21T20:29:40.227Z,95159.73
2023-02-21T20:32:07.235Z,95160.80
2023-02-21T20:34:34.172Z,95164.52
2023-02-21T20:37:00.351Z,95164.45
2023-02-21T20:39:33.852Z,95163.16
2023-02-21T20:42:05.908Z,95160.14
2023-02-21T20:44:34.838Z,95157.08
2023-02-21T20:47:01.842Z,95155.23
2023-02-21T20:49:28.282Z,95158.64
2023-02-21T20:51:56.440Z,95158.86
2023-02-21T20:54:22.780Z,95156.59
2023-02-21T20:56:56.169Z,95158.59
2023-02-21T20:59:27.795Z,95154.10
2023-02-21T21:01:54.974Z,95151.36
2023-02-21T21:04:26.115Z,95151.55
2023-02-21T21:06:55.384Z,95148.42
2023-02-21T21:09:31.412Z,95146.81
2023-02-21T21:12:00.280Z,95146.45
2023-02-21T21:14:28.477Z,95153.23
2023-02-21T21:16:56.305Z,95151.41
2023-02-21T21:19:26.010Z,95152.27
2023-02-21T21:21:53.381Z,95146.79
2023-02-21T21:24:20.239Z,95145.61
2023-02-21T21:26:52.549Z,95141.96
2023-02-21T21:29:23.435Z,95143.01
2023-02-21T21:31:51.750Z,95138.15
2023-02-21T21:34:25.260Z,95137.44
2023-02-21T21:37:02.056Z,95140.69
2023-02-21T21:39:28.275Z,95137.13
2023-02-21T21:42:04.690Z,95136.13
2023-02-21T21:44:32.185Z,95134.52
2023-02-21T21:47:00.386Z,95133.02
2023-02-21T21:49:31.899Z,95133.08
2023-02-21T21:51:59.303Z,95131.19
2023-02-21T21:54:26.585Z,95130.52
2023-02-21T21:56:54.607Z,95122.91
2023-02-21T21:59:26.342Z,95126.29
2023-02-21T22:01:53.468Z,95128.95
2023-02-21T22:04:20.394Z,95126.13
2023-02-21T22:06:46.846Z,95128.42
2023-02-21T22:09:17.016Z,95130.08
2023-02-21T22:11:45.136Z,95130.00
2023-02-21T22:14:12.231Z,95129.89
2023-02-21T22:16:41.375Z,95129.61
2023-02-21T22:19:08.644Z,95130.23
2023-02-21T22:21:35.691Z,95126.88
2023-02-21T22:24:08.029Z,95124.52
2023-02-21T22:26:34.049Z,95126.56
2023-02-21T22:29:05.331Z,95126.23
2023-02-21T22:31:34.770Z,95129.99
2023-02-21T22:34:01.516Z,95135.54
2023-02-21T22:36:32.239Z,95134.64
2023-02-21T22:39:07.714Z,95135.76
2023-02-21T22:41:34.131Z,95137.98
2023-02-21T22:44:00.488Z,95139.13
2023-02-21T22:46:28.566Z,95144.98
2023-02-21T22:48:55.401Z,95146.17
2023-02-21T22:51:27.334Z,95148.09
2023-02-21T22:53:53.997Z,95154.27
2023-02-21T22:56:24.013Z,95158.04
2023-02-21T22:58:51.610Z,95160.70
2023-02-21T23:01:20.318Z,95165.36
2023-02-21T23:03:47.374Z,95168.91
2023-02-21T23:06:14.166Z,95168.76
2023-02-21T23:08:45.933Z,95168.15
2023-02-21T23:11:20.680Z,95170.98
2023-02-21T23:13:46.921Z,95173.98
2023-02-21T23:16:21.311Z,95179.23
2023-02-21T23:18:47.658Z,95180.06
2023-02-21T23:21:14.039Z,95178.75
2023-02-21T23:23:41.012Z,95176.83
2023-02-21T23:26:08.138Z,95176.39
2023-02-21T23:28:34.691Z,95176.10
2023-02-21T23:31:00.884Z,95176.92
2023-02-21T23:33:30.423Z,95175.30
2023-02-21T23:35:57.323Z,95176.39
2023-02-21T23:38:27.228Z,95173.20
2023-02-21T23:40:56.438Z,95172.16
2023-02-21T23:43:25.198Z,95178.61
2023-02-21T23:45:52.314Z,95180.74
2023-02-21T23:48:18.631Z,95182.27
2023-02-21T23:50:46.399Z,95183.19
2023-02-21T23:53:16.178Z,95184.80
2023-02-21T23:55:42.968Z,95184.80
2023-02-21T23:58:12.551Z,95182.52
